Virtual Norwegian is not affiliated with Norwegian Air Shuttle in any way.
If you are looking for the real "Norwegian", or you wish to book Norwegian flights, please visit Norwegian.com


We use cookies to ensure you get the best experience on our website.   ACCEPT

LLBG - TLV - Tel-aviv (Ben Gurion)

General Info Alternate Airport
ICAO: LLBG Elevation: 135 ft ICAO: LCLK
IATA: TLV Country: Israel IATA: LCA
City: Tel-aviv Charts: Log in to view charts City: Larnaca
Name: Ben Gurion Hub: No Name Larnaca
General Info
ICAO: LLBG
IATA: TLV
City: Tel-aviv
Name: Ben Gurion
Elevation: 135 ft
Country: Israel
Charts: Log in to view charts
Hub: No
 
Alternate Airport
ICAO: LCLK
IATA: LCA
City: Larnaca
Name: Larnaca

Weather
201150Z 31010KT CAVOK 27/17 Q1014 NOSIG
Weather
201150Z 31010KT CAVOK 27/17 Q1014 NOSIG

Runway Info
08
Length ILS/LOC Course
4062 m 110.90 076
12
Length ILS/LOC Course
3112 m 110.30 118
26
Length ILS/LOC Course
4062 m 108.70 256
30
Length ILS/LOC Course
3112 m 111.90 309

NOTAMs
NOTAMs currently unavailable.
NOTAMs
NOTAMs currently unavailable

Route map
Airport
Airport (hub)